Flight Track Log - Related Links

Times and Time Zones

All times are in EDT time to prevent confusion due to time zone crossing. See the AWI3688 flight status page for this flight to view local times or setup timezone preferences in your user account.

Time Position Orientation Groundspeed Altitude Reporting Facility
EDT Latitude Longitude Course Direction KTS MPH feet Rate Location/Type
Sat 02:24:06 PM 42.7694 -73.8147 220° Southwest 164 189 1,400  Level Boston Center
Sat 02:25:04 PM 42.7872 -73.8858 289° West 205 236 3,900 2,797 Climbing Boston Center
Sat 02:26:00 PM 42.7334 -74.1787 270° West  Level FlightAware Approximate
Sat 02:26:04 PM 42.7883 -73.9594 271° West 217 250 6,900  Level Boston Center
Sat 02:27:00 PM 42.7313 -74.3041 236° Southwest  Level FlightAware Approximate
Sat 02:27:04 PM 42.7767 -74.0494 260° West 223 257 9,300  Level Boston Center
Sat 02:28:00 PM 42.6653 -74.3912 220° Southwest  Level FlightAware Approximate
Sat 02:28:04 PM 42.7650 -74.1425 260° West 265 305 11,100  Level Boston Center
Sat 02:29:00 PM 42.5938 -74.4715 220° Southwest  Level FlightAware Approximate
Sat 02:29:04 PM 42.7483 -74.2722 260° West 314 361 12,900  Level Boston Center
Sat 02:30:04 PM 42.6947 -74.3667 232° Southwest 343 395 15,100 2,250 Climbing Boston Center
Sat 02:31:04 PM 42.6075 -74.4656 220° Southwest 362 417 17,400 1,450 Climbing Boston Center
Sat 02:32:04 PM 42.5350 -74.5506 221° Southwest 381 438 18,000 300 Climbing Boston Center
Sat 02:33:04 PM 42.4350 -74.6625 220° Southwest 410 472 18,000  Level Boston Center
Sat 02:34:04 PM 42.3581 -74.7525 221° Southwest 415 478 18,000  Level Boston Center
Sat 02:36:16 PM 42.1506 -74.9806 219° Southwest 418 481 18,000  Level New York Center
Sat 02:37:17 PM 42.0539 -75.0639 213° Southwest 428 493 18,000  Level New York Center
Sat 02:38:17 PM 41.9639 -75.1333 210° Southwest 428 493 18,000  Level New York Center
Sat 02:39:16 PM 41.8631 -75.2158 211° Southwest 428 493 18,000 -496 Level New York Center
Sat 02:40:18 PM 41.7536 -75.3058 212° Southwest 422 486 17,000 -1,279 Descending New York Center
Sat 02:41:18 PM 41.6547 -75.3850 211° Southwest 417 480 15,400 -1,600 Descending New York Center
Sat 02:42:18 PM 41.5600 -75.4589 210° Southwest 417 480 13,800 -1,678 Descending New York Center
Sat 02:43:16 PM 41.4761 -75.5278 212° Southwest 417 480 12,100 -915 Descending New York Center
Sat 02:44:16 PM 41.3836 -75.6014 211° Southwest 406 467 12,000 -50 Descending New York Center
Sat 02:45:17 PM 41.2867 -75.6775 211° Southwest 406 467 12,000 -293 Level New York Center
Sat 02:46:19 PM 41.1700 -75.6828 182° South 376 433 11,400 -992 Descending New York Center
Sat 02:47:18 PM 41.0631 -75.6447 165° South 388 447 10,000 -706 Descending New York Center
Sat 02:48:18 PM 40.9644 -75.6128 166° South 372 428 10,000  Level New York Center
Sat 02:49:16 PM 40.8700 -75.5786 165° South 372 428 10,000  Level New York Center
Sat 02:50:17 PM 40.7817 -75.5478 165° South 372 428 10,000  Level New York Center
Sat 02:51:17 PM 40.6811 -75.5106 164° South 372 428 10,000  Level New York Center
Sat 02:52:18 PM 40.5844 -75.4794 166° South 372 428 10,000 -504 Level New York Center
Sat 02:53:16 PM 40.5064 -75.4522 165° South 327 376 9,000 -605 Descending New York Center
Sat 02:54:17 PM 40.4264 -75.4169 161° South 304 350 8,800 -934 Descending New York Center
Sat 02:55:18 PM 40.3428 -75.3703 157° South 298 343 7,100 -908 Descending New York Center
Sat 02:56:16 PM 40.2692 -75.3328 159° South 292 336 7,000 -50 Descending New York Center
Sat 02:57:17 PM 40.1972 -75.3606 196° South 273 314 7,000 -149 Level New York Center
Sat 02:58:17 PM 40.1144 -75.3986 199° South 286 329 6,700 -496 Descending New York Center
Sat 02:59:18 PM 40.0511 -75.4161 192° South 286 329 6,000 -347 Descending New York Center
Sat 03:00:18 PM 39.9872 -75.3983 168° South 233 268 6,000  Level New York Center
Sat 03:01:16 PM 39.9353 -75.3975 179° South 209 241 6,000  Level New York Center
Sat 03:02:17 PM 39.9158 -75.4667 250° West 161 185 6,000  Level New York Center
Sat 03:03:17 PM 39.8983 -75.5411 253° West 196 226 6,000 -49 Level New York Center
Sat 03:04:19 PM 39.8786 -75.6103 250° West 211 243 5,900 -504 Descending New York Center
Sat 03:05:16 PM 39.8272 -75.5933 166° South 176 203 5,000 -621 Descending New York Center
Sat 03:05:46 PM 39.8167 -75.5667 117° Southeast 184 212 5,000  Level Philadelphia TRACON

Login

Don't have an account? Register now (free) for customized features, flight alerts, and more!